createdAt,value
2019-03-30T00:00:13.761Z,0.00
2019-03-30T00:01:13.752Z,0.00
2019-03-30T00:02:13.733Z,0.00
2019-03-30T00:03:13.721Z,0.00
2019-03-30T00:04:13.704Z,0.00
2019-03-30T00:05:13.690Z,0.00
2019-03-30T00:06:13.674Z,0.00
2019-03-30T00:07:13.701Z,0.00
2019-03-30T00:08:13.651Z,0.00
2019-03-30T00:09:13.630Z,0.00
2019-03-30T00:10:13.616Z,0.00
2019-03-30T00:11:13.603Z,0.00
2019-03-30T00:12:13.586Z,0.00
2019-03-30T00:13:13.575Z,0.00
2019-03-30T00:14:13.562Z,0.00
2019-03-30T00:15:13.546Z,0.00
2019-03-30T00:16:13.527Z,0.00
2019-03-30T00:17:13.516Z,0.00
2019-03-30T00:18:13.503Z,0.00
2019-03-30T00:19:13.577Z,0.00
2019-03-30T00:20:13.471Z,0.00
2019-03-30T00:21:13.462Z,0.00
2019-03-30T00:22:13.442Z,0.00
2019-03-30T00:23:13.430Z,0.00
2019-03-30T00:24:13.410Z,0.00
2019-03-30T00:25:13.402Z,0.00
2019-03-30T00:26:13.382Z,0.00
2019-03-30T00:27:13.372Z,0.00
2019-03-30T00:28:13.356Z,0.00
2019-03-30T00:29:13.343Z,0.00
2019-03-30T00:30:13.325Z,0.00
2019-03-30T00:31:13.309Z,0.00
2019-03-30T00:32:13.304Z,0.00
2019-03-30T00:33:13.279Z,0.00
2019-03-30T00:34:13.269Z,0.00
2019-03-30T00:35:13.249Z,0.00
2019-03-30T00:36:13.239Z,0.00
2019-03-30T00:37:13.222Z,0.00
2019-03-30T00:38:13.218Z,0.00
2019-03-30T00:39:13.195Z,0.00
2019-03-30T00:40:13.187Z,0.00
2019-03-30T00:41:13.164Z,0.00
2019-03-30T00:42:13.152Z,0.00
2019-03-30T00:43:13.134Z,0.00
2019-03-30T00:44:13.119Z,0.00
2019-03-30T00:45:13.102Z,0.00
2019-03-30T00:46:13.089Z,0.00
2019-03-30T00:47:13.074Z,0.00
2019-03-30T00:48:13.060Z,0.00
2019-03-30T00:49:13.048Z,0.00
2019-03-30T00:50:13.030Z,0.00
2019-03-30T00:51:13.021Z,0.00
2019-03-30T00:52:13.006Z,0.00
2019-03-30T00:53:12.986Z,0.00
2019-03-30T00:54:12.969Z,0.00
2019-03-30T00:55:12.959Z,0.00
2019-03-30T00:56:12.943Z,0.00
2019-03-30T00:57:12.936Z,0.00
2019-03-30T00:58:12.910Z,0.00
2019-03-30T00:59:12.895Z,0.00
2019-03-30T01:00:12.887Z,0.00
2019-03-30T01:01:12.866Z,0.00
2019-03-30T01:02:12.856Z,0.00
2019-03-30T01:03:12.840Z,0.00
2019-03-30T01:04:12.825Z,0.00
2019-03-30T01:05:12.810Z,0.00
2019-03-30T01:06:12.794Z,0.00
2019-03-30T01:07:12.783Z,0.00
2019-03-30T01:08:12.765Z,0.00
2019-03-30T01:09:12.759Z,0.00
2019-03-30T01:10:12.737Z,0.00
2019-03-30T01:11:12.718Z,0.00
2019-03-30T01:12:12.702Z,0.00
2019-03-30T01:13:12.690Z,0.00
2019-03-30T01:14:12.679Z,0.00
2019-03-30T01:15:12.662Z,0.00
2019-03-30T01:16:12.645Z,0.00
2019-03-30T01:17:12.634Z,0.00
2019-03-30T01:18:12.618Z,0.00
2019-03-30T01:19:12.604Z,0.00
2019-03-30T01:20:12.583Z,0.00
2019-03-30T01:21:12.576Z,0.00
2019-03-30T01:22:12.558Z,0.00
2019-03-30T01:23:12.539Z,0.00
2019-03-30T01:24:12.527Z,0.00
2019-03-30T01:25:12.517Z,0.00
2019-03-30T01:26:12.503Z,0.00
2019-03-30T01:27:12.481Z,0.00
2019-03-30T01:28:12.479Z,0.00
2019-03-30T01:29:12.532Z,0.00
2019-03-30T01:30:22.476Z,0.00
2019-03-30T01:31:12.429Z,0.00
2019-03-30T01:32:12.410Z,0.00
2019-03-30T01:33:12.396Z,0.00
2019-03-30T01:34:12.374Z,0.00
2019-03-30T01:35:12.483Z,0.00
2019-03-30T01:36:12.353Z,0.00
2019-03-30T01:37:12.334Z,0.00
2019-03-30T01:38:12.321Z,0.00
2019-03-30T01:39:12.306Z,0.00
2019-03-30T01:40:12.292Z,0.00
2019-03-30T01:41:12.272Z,0.00
2019-03-30T01:42:12.257Z,0.00
2019-03-30T01:43:12.247Z,0.00
2019-03-30T01:44:12.231Z,0.00
2019-03-30T01:45:12.218Z,0.00
2019-03-30T01:46:12.245Z,0.00
2019-03-30T01:47:12.184Z,0.00
2019-03-30T01:48:12.167Z,0.00
2019-03-30T01:49:12.157Z,0.00
2019-03-30T01:50:17.578Z,0.00
2019-03-30T01:51:12.122Z,0.00
2019-03-30T01:52:12.112Z,0.00
2019-03-30T01:53:12.094Z,0.00
2019-03-30T01:54:12.081Z,0.00
2019-03-30T01:55:12.059Z,0.00
2019-03-30T01:56:12.047Z,0.00
2019-03-30T01:57:12.036Z,0.00
2019-03-30T01:58:12.020Z,0.00
2019-03-30T01:59:12.095Z,0.00
2019-03-30T02:00:11.990Z,0.00
2019-03-30T02:01:11.981Z,0.00
2019-03-30T02:02:11.954Z,0.00
2019-03-30T02:03:11.946Z,0.00
2019-03-30T02:04:11.928Z,0.00
2019-03-30T02:05:11.916Z,0.00
2019-03-30T02:06:11.898Z,0.00
2019-03-30T02:07:11.881Z,0.00
2019-03-30T02:08:11.875Z,0.00
2019-03-30T02:09:11.857Z,0.00
2019-03-30T02:10:11.839Z,0.00
2019-03-30T02:11:11.823Z,0.00
2019-03-30T02:12:11.804Z,0.00
2019-03-30T02:13:11.794Z,0.00
2019-03-30T02:14:11.775Z,0.00
2019-03-30T02:15:11.772Z,0.00
2019-03-30T02:16:11.744Z,0.00
2019-03-30T02:17:11.730Z,0.00
2019-03-30T02:18:11.714Z,0.00
2019-03-30T02:19:11.706Z,0.00
2019-03-30T02:20:11.686Z,0.00
2019-03-30T02:21:11.672Z,0.00
2019-03-30T02:22:11.655Z,0.00
2019-03-30T02:23:11.641Z,0.00
2019-03-30T02:24:11.629Z,0.00
2019-03-30T02:25:11.616Z,0.00
2019-03-30T02:26:11.596Z,0.00
2019-03-30T02:27:11.582Z,0.00
2019-03-30T02:28:11.572Z,0.00
2019-03-30T02:29:11.552Z,0.00
2019-03-30T02:30:11.539Z,0.00
2019-03-30T02:31:11.520Z,0.00
2019-03-30T02:32:11.511Z,0.00
2019-03-30T02:33:11.492Z,0.00
2019-03-30T02:34:11.475Z,0.00
2019-03-30T02:35:11.458Z,0.00
2019-03-30T02:36:11.448Z,0.00
2019-03-30T02:37:11.431Z,0.00
2019-03-30T02:38:11.413Z,0.00
2019-03-30T02:39:11.404Z,0.00
2019-03-30T02:40:11.385Z,0.00
2019-03-30T02:41:11.372Z,0.00
2019-03-30T02:42:11.354Z,0.00
2019-03-30T02:43:11.340Z,0.00
2019-03-30T02:44:11.323Z,0.00
2019-03-30T02:45:11.365Z,0.00
2019-03-30T02:46:11.295Z,0.00
2019-03-30T02:47:11.283Z,0.00
2019-03-30T02:48:11.268Z,0.00
2019-03-30T02:49:11.248Z,0.00
2019-03-30T02:50:11.235Z,0.00
2019-03-30T02:51:11.221Z,0.00
2019-03-30T02:52:11.201Z,0.00
2019-03-30T02:53:11.188Z,0.00
2019-03-30T02:54:11.174Z,0.00
2019-03-30T02:55:12.674Z,0.00
2019-03-30T02:56:11.142Z,0.00
2019-03-30T02:57:11.126Z,0.00
2019-03-30T02:58:11.108Z,0.00
2019-03-30T02:59:11.099Z,0.00
2019-03-30T03:00:11.105Z,0.00
2019-03-30T03:01:11.069Z,0.00
2019-03-30T03:02:11.056Z,0.00
2019-03-30T03:03:11.034Z,0.00
2019-03-30T03:04:11.019Z,0.00
2019-03-30T03:05:11.008Z,0.00
2019-03-30T03:06:11.005Z,0.00
2019-03-30T03:07:10.973Z,0.00
2019-03-30T03:08:10.960Z,0.00
2019-03-30T03:09:10.948Z,0.00
2019-03-30T03:10:10.930Z,0.00
2019-03-30T03:11:10.919Z,0.00
2019-03-30T03:12:10.901Z,0.00
2019-03-30T03:13:10.890Z,0.00
2019-03-30T03:14:10.874Z,0.00
2019-03-30T03:15:10.858Z,0.00
2019-03-30T03:16:10.841Z,0.00
2019-03-30T03:17:10.857Z,0.00
2019-03-30T03:18:10.807Z,0.00
2019-03-30T03:19:10.806Z,0.00
2019-03-30T03:20:10.780Z,0.00
2019-03-30T03:21:10.763Z,0.00
2019-03-30T03:22:10.746Z,0.00
2019-03-30T03:23:10.733Z,0.00
2019-03-30T03:24:10.715Z,0.00
2019-03-30T03:25:10.703Z,0.00
2019-03-30T03:26:10.683Z,0.00
2019-03-30T03:27:10.672Z,0.00
2019-03-30T03:28:10.657Z,0.00
2019-03-30T03:29:10.641Z,0.00
2019-03-30T03:30:10.622Z,0.00
2019-03-30T03:31:10.711Z,0.00
2019-03-30T03:32:10.594Z,0.00
2019-03-30T03:33:10.578Z,0.00
2019-03-30T03:34:10.566Z,0.00
2019-03-30T03:35:10.574Z,0.00
2019-03-30T03:36:10.534Z,0.00
2019-03-30T03:37:10.520Z,0.00
2019-03-30T03:38:10.515Z,0.00
2019-03-30T03:39:10.484Z,0.00
2019-03-30T03:40:10.468Z,0.00
2019-03-30T03:41:10.455Z,0.00
2019-03-30T03:42:10.448Z,0.00
2019-03-30T03:43:10.423Z,0.00
2019-03-30T03:44:10.412Z,0.00
2019-03-30T03:45:10.399Z,0.00
2019-03-30T03:46:10.381Z,0.00
2019-03-30T03:47:10.367Z,0.00
2019-03-30T03:48:10.350Z,0.00
2019-03-30T03:49:10.334Z,0.00
2019-03-30T03:50:10.319Z,0.00
2019-03-30T03:51:25.092Z,0.00
2019-03-30T03:52:10.290Z,0.00
2019-03-30T03:53:10.270Z,0.00
2019-03-30T03:54:10.255Z,0.00
2019-03-30T03:55:10.238Z,0.00
2019-03-30T03:56:10.229Z,0.00
2019-03-30T03:57:10.215Z,0.00
2019-03-30T03:58:10.194Z,0.00
2019-03-30T03:59:10.178Z,0.00
2019-03-30T04:00:10.165Z,0.00
2019-03-30T04:01:10.180Z,0.00
2019-03-30T04:02:10.133Z,0.00
2019-03-30T04:03:10.131Z,0.00
2019-03-30T04:04:10.103Z,0.00
2019-03-30T04:05:10.093Z,0.00
2019-03-30T04:06:10.069Z,0.00
2019-03-30T04:07:10.062Z,0.00
2019-03-30T04:08:10.041Z,0.00
2019-03-30T04:09:10.030Z,0.00
2019-03-30T04:10:10.015Z,0.00
2019-03-30T04:11:09.996Z,0.00
2019-03-30T04:12:09.985Z,0.00
2019-03-30T04:13:09.971Z,0.00
2019-03-30T04:14:09.948Z,0.00
2019-03-30T04:15:09.932Z,0.00
2019-03-30T04:16:09.920Z,0.00
2019-03-30T04:17:09.919Z,0.00
2019-03-30T04:18:09.887Z,0.00
2019-03-30T04:19:09.869Z,0.00
2019-03-30T04:20:09.852Z,0.00
2019-03-30T04:21:09.843Z,0.00
2019-03-30T04:22:09.826Z,0.00
2019-03-30T04:23:09.808Z,0.00
2019-03-30T04:24:09.793Z,0.00
2019-03-30T04:25:09.779Z,0.00
2019-03-30T04:26:09.765Z,0.00
2019-03-30T04:27:09.748Z,0.00
2019-03-30T04:28:09.727Z,0.00
2019-03-30T04:29:09.720Z,0.00
2019-03-30T04:30:09.704Z,0.00
2019-03-30T04:31:09.685Z,0.00
2019-03-30T04:32:09.684Z,0.00
2019-03-30T04:33:09.657Z,0.00
2019-03-30T04:34:09.639Z,0.00
2019-03-30T04:35:09.642Z,0.00
2019-03-30T04:36:09.601Z,0.00
2019-03-30T04:37:09.600Z,0.00
2019-03-30T04:38:13.929Z,0.00
2019-03-30T04:39:09.563Z,0.00
2019-03-30T04:40:09.546Z,0.00
2019-03-30T04:41:09.531Z,0.00
2019-03-30T04:42:09.516Z,0.00
2019-03-30T04:43:09.496Z,0.00
2019-03-30T04:44:09.513Z,0.00
2019-03-30T04:45:09.470Z,0.00
2019-03-30T04:46:09.451Z,0.00
2019-03-30T04:47:09.433Z,4.00
2019-03-30T04:48:09.419Z,4.00
2019-03-30T04:49:09.403Z,0.00
2019-03-30T04:50:09.385Z,4.00
2019-03-30T04:51:09.379Z,4.00
2019-03-30T04:52:09.360Z,4.00
2019-03-30T04:53:09.341Z,4.00
2019-03-30T04:54:09.323Z,4.00
2019-03-30T04:55:09.311Z,8.00
2019-03-30T04:56:09.296Z,8.00
2019-03-30T04:57:09.276Z,8.00
2019-03-30T04:58:09.653Z,12.00
2019-03-30T04:59:09.247Z,12.00
2019-03-30T05:00:09.230Z,16.00
2019-03-30T05:01:09.218Z,16.00
2019-03-30T05:02:09.200Z,20.00
2019-03-30T05:03:09.183Z,20.00
2019-03-30T05:04:09.171Z,24.00
2019-03-30T05:05:09.155Z,24.00
2019-03-30T05:06:09.136Z,28.00
2019-03-30T05:07:09.120Z,32.00
2019-03-30T05:08:09.108Z,36.00
2019-03-30T05:09:09.090Z,40.00
2019-03-30T05:10:09.079Z,44.00
2019-03-30T05:11:09.058Z,48.00
2019-03-30T05:12:09.045Z,48.00
2019-03-30T05:13:09.029Z,56.00
2019-03-30T05:14:09.093Z,60.00
2019-03-30T05:15:09.003Z,64.00
2019-03-30T05:16:08.981Z,68.00
2019-03-30T05:17:08.967Z,68.00
2019-03-30T05:18:08.948Z,76.00
2019-03-30T05:19:08.932Z,80.00
2019-03-30T05:20:08.915Z,84.00
2019-03-30T05:21:08.904Z,88.00
2019-03-30T05:22:13.543Z,92.00
2019-03-30T05:23:08.872Z,100.00
2019-03-30T05:24:08.856Z,104.00
2019-03-30T05:25:08.838Z,108.00
2019-03-30T05:26:08.823Z,112.00
2019-03-30T05:27:08.808Z,116.00
2019-03-30T05:28:08.793Z,120.00
2019-03-30T05:29:08.783Z,124.00
2019-03-30T05:30:08.763Z,132.00
2019-03-30T05:31:08.748Z,136.00
2019-03-30T05:32:08.733Z,136.00
2019-03-30T05:33:08.718Z,144.00
2019-03-30T05:34:08.697Z,148.00
2019-03-30T05:35:08.684Z,152.00
2019-03-30T05:36:08.672Z,156.00
2019-03-30T05:37:08.660Z,156.00
2019-03-30T05:38:08.639Z,160.00
2019-03-30T05:39:08.622Z,164.00
2019-03-30T05:40:08.611Z,168.00
2019-03-30T05:41:08.591Z,172.00
2019-03-30T05:42:08.574Z,172.00
2019-03-30T05:43:08.554Z,180.00
2019-03-30T05:44:08.540Z,188.00
2019-03-30T05:45:08.526Z,192.00
2019-03-30T05:46:08.512Z,196.00
2019-03-30T05:47:08.496Z,200.00
2019-03-30T05:48:08.562Z,204.00
2019-03-30T05:49:08.464Z,204.00
2019-03-30T05:50:08.447Z,208.00
2019-03-30T05:51:08.431Z,212.00
2019-03-30T05:52:08.415Z,216.00
2019-03-30T05:53:08.403Z,220.00
2019-03-30T05:54:08.384Z,220.00
2019-03-30T05:55:08.369Z,224.00
2019-03-30T05:56:08.353Z,228.00
2019-03-30T05:57:08.341Z,236.00
2019-03-30T05:58:08.320Z,236.00
2019-03-30T05:59:08.306Z,240.00
2019-03-30T06:00:08.287Z,244.00
2019-03-30T06:01:08.280Z,252.00
2019-03-30T06:02:08.260Z,256.00
2019-03-30T06:03:08.244Z,260.00
2019-03-30T06:04:08.230Z,264.00
2019-03-30T06:05:08.214Z,268.00
2019-03-30T06:06:08.199Z,272.00
2019-03-30T06:07:08.180Z,276.00
2019-03-30T06:08:08.165Z,276.00
2019-03-30T06:09:08.148Z,284.00
2019-03-30T06:10:08.130Z,288.00
2019-03-30T06:11:08.118Z,292.00
2019-03-30T06:12:08.100Z,292.00
2019-03-30T06:13:08.084Z,296.00
2019-03-30T06:14:08.071Z,296.00
2019-03-30T06:15:08.062Z,300.00
2019-03-30T06:16:08.039Z,304.00
2019-03-30T06:17:08.026Z,308.00
2019-03-30T06:18:11.161Z,308.00
2019-03-30T06:19:07.992Z,312.00
2019-03-30T06:20:07.981Z,316.00
2019-03-30T06:21:07.961Z,316.00
2019-03-30T06:22:07.942Z,324.00
2019-03-30T06:23:07.926Z,328.00
2019-03-30T06:24:07.912Z,328.00
2019-03-30T06:25:07.903Z,332.00
2019-03-30T06:26:07.884Z,332.00
2019-03-30T06:27:07.872Z,336.00
2019-03-30T06:28:07.852Z,340.00
2019-03-30T06:29:07.837Z,344.00
2019-03-30T06:30:07.818Z,348.00
2019-03-30T06:31:07.805Z,352.00
2019-03-30T06:32:07.792Z,352.00
2019-03-30T06:33:07.773Z,356.00
2019-03-30T06:34:07.763Z,360.00
2019-03-30T06:35:07.745Z,360.00
2019-03-30T06:36:07.725Z,364.00
2019-03-30T06:37:07.710Z,372.00
2019-03-30T06:38:07.693Z,376.00
2019-03-30T06:39:07.675Z,388.00
2019-03-30T06:40:07.667Z,400.00
2019-03-30T06:41:07.651Z,432.00
2019-03-30T06:42:07.631Z,452.00
2019-03-30T06:43:08.130Z,472.00
2019-03-30T06:44:07.605Z,496.00
2019-03-30T06:45:07.586Z,520.00
2019-03-30T06:46:07.565Z,548.00
2019-03-30T06:47:07.552Z,580.00
2019-03-30T06:48:07.544Z,624.00
2019-03-30T06:49:07.526Z,684.00
2019-03-30T06:50:07.512Z,772.00
2019-03-30T06:51:07.495Z,896.00
2019-03-30T06:52:07.474Z,1048.00
2019-03-30T06:53:07.464Z,1236.00
2019-03-30T06:54:07.452Z,1228.00
2019-03-30T06:55:07.431Z,1316.00
2019-03-30T06:56:07.443Z,1504.00
2019-03-30T06:57:07.400Z,1568.00
2019-03-30T06:58:07.384Z,1592.00
2019-03-30T06:59:07.374Z,1616.00
2019-03-30T07:00:07.356Z,1636.00
2019-03-30T07:01:07.332Z,1656.00
2019-03-30T07:02:07.321Z,1684.00
2019-03-30T07:03:07.315Z,1712.00
2019-03-30T07:04:07.293Z,1716.00
2019-03-30T07:05:07.283Z,1764.00
2019-03-30T07:06:07.264Z,1792.00
2019-03-30T07:07:07.250Z,1812.00
2019-03-30T07:08:07.232Z,1840.00
2019-03-30T07:09:07.223Z,1864.00
2019-03-30T07:10:07.206Z,1884.00
2019-03-30T07:11:20.664Z,1916.00
2019-03-30T07:12:07.179Z,1940.00
2019-03-30T07:13:07.174Z,1968.00
2019-03-30T07:14:07.148Z,1996.00
2019-03-30T07:15:07.138Z,2028.00
2019-03-30T07:16:07.118Z,2056.00
2019-03-30T07:17:07.101Z,2076.00
2019-03-30T07:18:07.089Z,2104.00
2019-03-30T07:19:07.075Z,2136.00
2019-03-30T07:20:07.060Z,2160.00
2019-03-30T07:21:07.048Z,2200.00
2019-03-30T07:22:07.030Z,2028.00
2019-03-30T07:23:12.180Z,2132.00
2019-03-30T07:24:07.002Z,2136.00
2019-03-30T07:25:06.986Z,2264.00
2019-03-30T07:26:06.977Z,2288.00
2019-03-30T07:27:06.960Z,2300.00
2019-03-30T07:28:06.950Z,2336.00
2019-03-30T07:29:06.933Z,2372.00
2019-03-30T07:30:06.972Z,2424.00
2019-03-30T07:31:06.901Z,2472.00
2019-03-30T07:32:06.892Z,2508.00
2019-03-30T07:33:06.878Z,2540.00
2019-03-30T07:34:06.860Z,2564.00
2019-03-30T07:35:06.850Z,2572.00
2019-03-30T07:36:06.838Z,2556.00
2019-03-30T07:37:06.824Z,2632.00
2019-03-30T07:38:06.807Z,2640.00
2019-03-30T07:39:06.794Z,2688.00
2019-03-30T07:40:06.776Z,2672.00
2019-03-30T07:41:06.768Z,2764.00
2019-03-30T07:42:06.754Z,2788.00
2019-03-30T07:43:06.741Z,2804.00
2019-03-30T07:44:06.732Z,2812.00
2019-03-30T07:45:06.715Z,2856.00
2019-03-30T07:46:06.703Z,2908.00
2019-03-30T07:47:06.686Z,2920.00
2019-03-30T07:48:06.674Z,2896.00
2019-03-30T07:49:06.660Z,2916.00
2019-03-30T07:50:06.643Z,2976.00
2019-03-30T07:51:06.633Z,3024.00
2019-03-30T07:52:06.625Z,3076.00
2019-03-30T07:53:06.609Z,3092.00
2019-03-30T07:54:06.591Z,3116.00
2019-03-30T07:55:06.578Z,3156.00
2019-03-30T07:56:08.668Z,3184.00
2019-03-30T07:57:16.530Z,3216.00
2019-03-30T07:58:06.584Z,3248.00
2019-03-30T07:59:06.528Z,3264.00
2019-03-30T08:00:06.513Z,3292.00
2019-03-30T08:01:06.508Z,3336.00
2019-03-30T08:02:06.494Z,3360.00
2019-03-30T08:03:06.478Z,3404.00
2019-03-30T08:04:06.468Z,3424.00
2019-03-30T08:05:06.454Z,3460.00
2019-03-30T08:06:06.440Z,3492.00
2019-03-30T08:07:06.427Z,3528.00
2019-03-30T08:08:06.419Z,3596.00
2019-03-30T08:09:06.407Z,3528.00
2019-03-30T08:10:06.406Z,3504.00
2019-03-30T08:11:06.397Z,3400.00
2019-03-30T08:12:06.366Z,3556.00
2019-03-30T08:13:06.353Z,3680.00
2019-03-30T08:14:06.341Z,3672.00
2019-03-30T08:15:06.329Z,3656.00
2019-03-30T08:16:06.320Z,3596.00
2019-03-30T08:17:06.306Z,3688.00
2019-03-30T08:18:06.298Z,3776.00
2019-03-30T08:19:06.285Z,3756.00
2019-03-30T08:20:06.270Z,3860.00
2019-03-30T08:21:06.262Z,3920.00
2019-03-30T08:22:06.243Z,3916.00
2019-03-30T08:23:06.238Z,3960.00
2019-03-30T08:24:06.224Z,4020.00
2019-03-30T08:25:06.215Z,3996.00
2019-03-30T08:26:06.202Z,4004.00
2019-03-30T08:27:06.187Z,4012.00
2019-03-30T08:28:06.177Z,3964.00
2019-03-30T08:29:06.165Z,4012.00
2019-03-30T08:30:06.172Z,4048.00
2019-03-30T08:31:06.144Z,4136.00
2019-03-30T08:32:06.131Z,4172.00
2019-03-30T08:33:06.118Z,4228.00
2019-03-30T08:34:06.109Z,4240.00
2019-03-30T08:35:06.099Z,4328.00
2019-03-30T08:36:06.162Z,4380.00
2019-03-30T08:37:06.074Z,4256.00
2019-03-30T08:38:06.065Z,4132.00
2019-03-30T08:39:06.056Z,4276.00
2019-03-30T08:40:06.039Z,4372.00
2019-03-30T08:41:06.028Z,4504.00
2019-03-30T08:42:06.020Z,4616.00
2019-03-30T08:43:06.007Z,4656.00
2019-03-30T08:44:05.995Z,4644.00
2019-03-30T08:45:05.986Z,4436.00
2019-03-30T08:46:05.973Z,4648.00
2019-03-30T08:47:05.966Z,4748.00
2019-03-30T08:48:05.960Z,4788.00
2019-03-30T08:49:05.944Z,4804.00
2019-03-30T08:50:05.932Z,4832.00
2019-03-30T08:51:05.921Z,4864.00
2019-03-30T08:52:05.916Z,4824.00
2019-03-30T08:53:05.904Z,4764.00
2019-03-30T08:54:05.894Z,4632.00
2019-03-30T08:55:05.878Z,4628.00
2019-03-30T08:56:05.875Z,4564.00
2019-03-30T08:57:05.863Z,4696.00
2019-03-30T08:58:05.846Z,4788.00
2019-03-30T08:59:05.839Z,4840.00
2019-03-30T09:00:05.826Z,4764.00
2019-03-30T09:01:05.819Z,4764.00
2019-03-30T09:02:05.804Z,4888.00
2019-03-30T09:03:05.796Z,4608.00
2019-03-30T09:04:05.786Z,4672.00
2019-03-30T09:05:05.775Z,4488.00
2019-03-30T09:06:05.765Z,5140.00
2019-03-30T09:07:05.753Z,5176.00
2019-03-30T09:08:05.747Z,5196.00
2019-03-30T09:09:05.738Z,5236.00
2019-03-30T09:10:05.728Z,5272.00
2019-03-30T09:11:05.719Z,5288.00
2019-03-30T09:12:05.711Z,5340.00
2019-03-30T09:13:05.702Z,5352.00
2019-03-30T09:14:05.687Z,4880.00
2019-03-30T09:15:05.746Z,5000.00
2019-03-30T09:16:05.671Z,5276.00
2019-03-30T09:17:05.658Z,5232.00
2019-03-30T09:18:05.646Z,5356.00
2019-03-30T09:19:05.639Z,5184.00
2019-03-30T09:20:05.632Z,5356.00
2019-03-30T09:21:05.616Z,5092.00
2019-03-30T09:22:05.607Z,4900.00
2019-03-30T09:23:05.603Z,5004.00
2019-03-30T09:24:09.862Z,4756.00
2019-03-30T09:25:05.579Z,5204.00
2019-03-30T09:26:05.564Z,5096.00
2019-03-30T09:27:05.562Z,4976.00
2019-03-30T09:28:05.557Z,4496.00
2019-03-30T09:29:05.541Z,4868.00
2019-03-30T09:30:05.529Z,4884.00
2019-03-30T09:31:05.522Z,5056.00
2019-03-30T09:32:14.443Z,4396.00
2019-03-30T09:33:05.506Z,5100.00
2019-03-30T09:34:05.491Z,5512.00
2019-03-30T09:35:05.486Z,5520.00
2019-03-30T09:36:05.477Z,5040.00
2019-03-30T09:37:05.469Z,5124.00
2019-03-30T09:38:05.457Z,4688.00
2019-03-30T09:39:05.446Z,4972.00
2019-03-30T09:40:05.441Z,5288.00
2019-03-30T09:41:05.427Z,5268.00
2019-03-30T09:42:05.420Z,5500.00
2019-03-30T09:43:05.408Z,5124.00
2019-03-30T09:44:05.393Z,4752.00
2019-03-30T09:45:05.387Z,4304.00
2019-03-30T09:46:05.373Z,4556.00
2019-03-30T09:47:05.370Z,5308.00
2019-03-30T09:48:05.356Z,5072.00
2019-03-30T09:49:05.350Z,5516.00
2019-03-30T09:50:05.336Z,5400.00
2019-03-30T09:51:05.329Z,5692.00
2019-03-30T09:52:05.318Z,5400.00
2019-03-30T09:53:05.325Z,5368.00
2019-03-30T09:54:05.297Z,5532.00
2019-03-30T09:55:05.296Z,5464.00
2019-03-30T09:56:05.284Z,5496.00
2019-03-30T09:57:05.269Z,5624.00
2019-03-30T09:58:05.263Z,5824.00
2019-03-30T09:59:05.252Z,5912.00
2019-03-30T10:00:05.250Z,5948.00
2019-03-30T10:01:05.236Z,5872.00
2019-03-30T10:02:05.224Z,5856.00
2019-03-30T10:03:06.274Z,6012.00
2019-03-30T10:04:05.208Z,5804.00
2019-03-30T10:05:05.200Z,6148.00
2019-03-30T10:06:05.191Z,6148.00
2019-03-30T10:07:05.179Z,6156.00
2019-03-30T10:08:05.172Z,6168.00
2019-03-30T10:09:05.167Z,6164.00
2019-03-30T10:10:05.154Z,6188.00
2019-03-30T10:11:05.150Z,6204.00
2019-03-30T10:12:05.140Z,6052.00
2019-03-30T10:13:05.131Z,6148.00
2019-03-30T10:14:05.118Z,5844.00
2019-03-30T10:15:05.110Z,5708.00
2019-03-30T10:16:05.107Z,5204.00
2019-03-30T10:17:05.101Z,5744.00
2019-03-30T10:18:05.090Z,5640.00
2019-03-30T10:19:05.075Z,6020.00
2019-03-30T10:20:05.370Z,5952.00
2019-03-30T10:21:05.062Z,5908.00
2019-03-30T10:22:05.054Z,5892.00
2019-03-30T10:23:05.047Z,5732.00
2019-03-30T10:24:05.037Z,5724.00
2019-03-30T10:25:05.030Z,6380.00
2019-03-30T10:26:05.016Z,6388.00
2019-03-30T10:27:05.013Z,6408.00
2019-03-30T10:28:05.006Z,6408.00
2019-03-30T10:29:04.990Z,6428.00
2019-03-30T10:30:04.987Z,6444.00
2019-03-30T10:31:04.979Z,6460.00
2019-03-30T10:32:04.983Z,6476.00
2019-03-30T10:33:04.962Z,6432.00
2019-03-30T10:34:04.950Z,6420.00
2019-03-30T10:35:04.944Z,6480.00
2019-03-30T10:36:04.937Z,5532.00
2019-03-30T10:37:04.931Z,5956.00
2019-03-30T10:38:04.920Z,6608.00
2019-03-30T10:39:04.922Z,6656.00
2019-03-30T10:40:04.900Z,6760.00
2019-03-30T10:41:04.898Z,5072.00
2019-03-30T10:42:04.887Z,6576.00
2019-03-30T10:43:04.882Z,6364.00
2019-03-30T10:44:04.874Z,4940.00
2019-03-30T10:45:04.866Z,4088.00
2019-03-30T10:46:04.859Z,6144.00
2019-03-30T10:47:04.850Z,6196.00
2019-03-30T10:48:04.842Z,6440.00
2019-03-30T10:49:04.833Z,6400.00
2019-03-30T10:50:04.825Z,5896.00
2019-03-30T10:51:04.822Z,5512.00
2019-03-30T10:52:04.815Z,6740.00
2019-03-30T10:53:04.801Z,5716.00
2019-03-30T10:54:04.794Z,6404.00
2019-03-30T10:55:04.788Z,6456.00
2019-03-30T10:56:04.782Z,5752.00
2019-03-30T10:57:04.770Z,5832.00
2019-03-30T10:58:04.763Z,4656.00
2019-03-30T10:59:04.757Z,6916.00
2019-03-30T11:00:04.748Z,6844.00
2019-03-30T11:01:04.745Z,6772.00
2019-03-30T11:02:04.737Z,6760.00
2019-03-30T11:03:04.727Z,6748.00
2019-03-30T11:04:04.721Z,6716.00
2019-03-30T11:05:04.716Z,6032.00
2019-03-30T11:06:04.709Z,5900.00
2019-03-30T11:07:04.700Z,6776.00
2019-03-30T11:08:04.695Z,6596.00
2019-03-30T11:09:04.683Z,6500.00
2019-03-30T11:10:04.678Z,6408.00
2019-03-30T11:11:04.675Z,6272.00
2019-03-30T11:12:04.664Z,6308.00
2019-03-30T11:13:04.666Z,6448.00
2019-03-30T11:14:04.649Z,6476.00
2019-03-30T11:15:04.639Z,6432.00
2019-03-30T11:16:04.635Z,6340.00
2019-03-30T11:17:04.629Z,6528.00
2019-03-30T11:18:04.622Z,6676.00
2019-03-30T11:19:04.618Z,6792.00
2019-03-30T11:20:04.665Z,6820.00
2019-03-30T11:21:04.600Z,6868.00
2019-03-30T11:22:04.594Z,6572.00
2019-03-30T11:23:04.583Z,6880.00
2019-03-30T11:24:06.745Z,6928.00
2019-03-30T11:25:07.857Z,6792.00
2019-03-30T11:26:04.563Z,6760.00
2019-03-30T11:27:04.555Z,6888.00
2019-03-30T11:28:04.550Z,6808.00
2019-03-30T11:29:04.544Z,6648.00
2019-03-30T11:30:04.537Z,6160.00
2019-03-30T11:31:05.613Z,6552.00
2019-03-30T11:32:04.521Z,6520.00
2019-03-30T11:33:04.512Z,6696.00
2019-03-30T11:34:05.471Z,7064.00
2019-03-30T11:35:04.500Z,7072.00
2019-03-30T11:36:04.503Z,7100.00
2019-03-30T11:37:04.487Z,7068.00
2019-03-30T11:38:04.482Z,7180.00
2019-03-30T11:39:04.474Z,7080.00
2019-03-30T11:40:04.471Z,7040.00
2019-03-30T11:41:04.462Z,6824.00
2019-03-30T11:42:04.453Z,7032.00
2019-03-30T11:43:04.449Z,6904.00
2019-03-30T11:44:04.445Z,7196.00
2019-03-30T11:45:04.434Z,7240.00
2019-03-30T11:46:04.431Z,7256.00
2019-03-30T11:47:04.428Z,7244.00
2019-03-30T11:48:04.414Z,7256.00
2019-03-30T11:49:04.409Z,7220.00
2019-03-30T11:50:04.404Z,7256.00
2019-03-30T11:51:04.406Z,7264.00
2019-03-30T11:52:04.390Z,7268.00
2019-03-30T11:53:04.379Z,7272.00
2019-03-30T11:54:05.404Z,7264.00
2019-03-30T11:55:04.370Z,7268.00
2019-03-30T11:56:04.369Z,7268.00
2019-03-30T11:57:04.359Z,7252.00
2019-03-30T11:58:04.349Z,7232.00
2019-03-30T11:59:04.343Z,7256.00
2019-03-30T12:00:04.338Z,7260.00
2019-03-30T12:01:04.334Z,7268.00
2019-03-30T12:02:04.326Z,7268.00
2019-03-30T12:03:04.322Z,7268.00
2019-03-30T12:04:04.315Z,7236.00
2019-03-30T12:05:04.306Z,7224.00
2019-03-30T12:06:04.303Z,7260.00
2019-03-30T12:07:04.296Z,7260.00
2019-03-30T12:08:04.292Z,6952.00
2019-03-30T12:09:04.341Z,6804.00
2019-03-30T12:10:04.278Z,6812.00
2019-03-30T12:11:04.272Z,6812.00
2019-03-30T12:12:04.266Z,6860.00
2019-03-30T12:13:04.259Z,6532.00
2019-03-30T12:14:04.259Z,6684.00
2019-03-30T12:15:04.252Z,6776.00
2019-03-30T12:16:04.241Z,6924.00
2019-03-30T12:17:04.239Z,6932.00
2019-03-30T12:18:04.237Z,6980.00
2019-03-30T12:19:04.224Z,7124.00
2019-03-30T12:20:04.217Z,7156.00
2019-03-30T12:21:04.210Z,7156.00
2019-03-30T12:22:04.273Z,7116.00
2019-03-30T12:23:04.201Z,7216.00
2019-03-30T12:24:04.194Z,7224.00
2019-03-30T12:25:04.193Z,7220.00
2019-03-30T12:26:04.186Z,7188.00
2019-03-30T12:27:04.173Z,7152.00
2019-03-30T12:28:04.174Z,7188.00
2019-03-30T12:29:04.180Z,7220.00
2019-03-30T12:30:04.165Z,7232.00
2019-03-30T12:31:04.153Z,7236.00
2019-03-30T12:32:04.151Z,7184.00
2019-03-30T12:33:04.145Z,7096.00
2019-03-30T12:34:04.135Z,6956.00
2019-03-30T12:35:04.194Z,6964.00
2019-03-30T12:36:04.121Z,7128.00
2019-03-30T12:37:04.122Z,7032.00